sensor_id;sensor_type;location;lat;lon;timestamp;P1;durP1;ratioP1;P2;durP2;ratioP2
61642;SDS011;47551;52.506;4.678;2024-03-23T00:52:08;14.10;;;2.60;;
61642;SDS011;47551;52.506;4.678;2024-03-23T00:52:48;10.73;;;2.10;;
61642;SDS011;47551;52.506;4.678;2024-03-23T00:53:50;9.67;;;2.10;;
61642;SDS011;47551;52.506;4.678;2024-03-23T00:54:10;11.07;;;2.30;;
61642;SDS011;47551;52.506;4.678;2024-03-23T00:54:30;10.57;;;2.07;;
61642;SDS011;47551;52.506;4.678;2024-03-23T00:54:50;9.80;;;2.13;;
61642;SDS011;47551;52.506;4.678;2024-03-23T00:55:11;10.50;;;2.53;;
61642;SDS011;47551;52.506;4.678;2024-03-23T00:55:31;11.35;;;2.50;;
61642;SDS011;47551;52.506;4.678;2024-03-23T00:55:51;12.23;;;2.30;;
61642;SDS011;47551;52.506;4.678;2024-03-23T00:56:11;12.93;;;2.33;;
61642;SDS011;47551;52.506;4.678;2024-03-23T00:56:31;11.07;;;2.13;;
61642;SDS011;47551;52.506;4.678;2024-03-23T00:56:52;11.68;;;2.35;;
61642;SDS011;47551;52.506;4.678;2024-03-23T00:57:13;10.65;;;2.15;;
61642;SDS011;47551;52.506;4.678;2024-03-23T00:57:36;9.03;;;2.20;;
61642;SDS011;47551;52.506;4.678;2024-03-23T00:57:56;10.38;;;2.17;;
61642;SDS011;47551;52.506;4.678;2024-03-23T00:58:16;10.00;;;2.10;;
61642;SDS011;47551;52.506;4.678;2024-03-23T00:58:36;10.13;;;2.13;;
61642;SDS011;47551;52.506;4.678;2024-03-23T00:58:56;11.93;;;2.15;;
61642;SDS011;47551;52.506;4.678;2024-03-23T00:59:17;11.33;;;2.00;;
61642;SDS011;47551;52.506;4.678;2024-03-23T00:59:37;10.90;;;2.20;;
61642;SDS011;47551;52.506;4.678;2024-03-23T00:59:57;10.43;;;2.10;;
61642;SDS011;47551;52.506;4.678;2024-03-23T01:00:17;10.23;;;2.03;;
61642;SDS011;47551;52.506;4.678;2024-03-23T01:00:37;9.27;;;2.17;;
61642;SDS011;47551;52.506;4.678;2024-03-23T01:00:58;10.57;;;2.30;;
61642;SDS011;47551;52.506;4.678;2024-03-23T01:01:18;10.33;;;2.37;;
61642;SDS011;47551;52.506;4.678;2024-03-23T01:01:38;8.95;;;2.10;;
61642;SDS011;47551;52.506;4.678;2024-03-23T01:01:58;10.40;;;2.30;;
61642;SDS011;47551;52.506;4.678;2024-03-23T01:02:18;11.20;;;2.47;;
61642;SDS011;47551;52.506;4.678;2024-03-23T01:02:38;12.00;;;2.27;;
61642;SDS011;47551;52.506;4.678;2024-03-23T01:02:59;9.87;;;1.97;;
61642;SDS011;47551;52.506;4.678;2024-03-23T01:03:19;10.70;;;2.10;;
61642;SDS011;47551;52.506;4.678;2024-03-23T01:03:39;13.00;;;2.50;;
61642;SDS011;47551;52.506;4.678;2024-03-23T01:03:59;11.07;;;2.10;;
61642;SDS011;47551;52.506;4.678;2024-03-23T01:04:20;12.23;;;2.40;;
61642;SDS011;47551;52.506;4.678;2024-03-23T01:04:40;10.80;;;2.07;;
61642;SDS011;47551;52.506;4.678;2024-03-23T01:05:00;11.90;;;2.20;;
61642;SDS011;47551;52.506;4.678;2024-03-23T01:05:20;10.93;;;2.30;;
61642;SDS011;47551;52.506;4.678;2024-03-23T01:05:40;12.30;;;2.70;;
61642;SDS011;47551;52.506;4.678;2024-03-23T01:06:01;10.80;;;2.40;;
61642;SDS011;47551;52.506;4.678;2024-03-23T01:06:21;11.38;;;2.47;;
61642;SDS011;47551;52.506;4.678;2024-03-23T01:06:41;10.90;;;2.57;;
61642;SDS011;47551;52.506;4.678;2024-03-23T01:07:01;10.30;;;2.10;;
61642;SDS011;47551;52.506;4.678;2024-03-23T01:07:22;9.80;;;2.30;;
61642;SDS011;47551;52.506;4.678;2024-03-23T01:07:42;10.83;;;2.10;;
61642;SDS011;47551;52.506;4.678;2024-03-23T01:08:02;12.87;;;2.23;;
61642;SDS011;47551;52.506;4.678;2024-03-23T01:08:22;11.33;;;2.10;;
61642;SDS011;47551;52.506;4.678;2024-03-23T01:08:42;11.13;;;2.30;;
61642;SDS011;47551;52.506;4.678;2024-03-23T01:09:02;11.03;;;2.33;;
61642;SDS011;47551;52.506;4.678;2024-03-23T01:09:26;9.52;;;2.10;;
61642;SDS011;47551;52.506;4.678;2024-03-23T01:09:46;10.77;;;2.40;;
61642;SDS011;47551;52.506;4.678;2024-03-23T01:10:06;11.27;;;2.50;;
61642;SDS011;47551;52.506;4.678;2024-03-23T01:10:26;11.35;;;2.25;;
61642;SDS011;47551;52.506;4.678;2024-03-23T01:10:59;9.93;;;2.10;;
61642;SDS011;47551;52.506;4.678;2024-03-23T01:11:19;9.43;;;2.50;;
61642;SDS011;47551;52.506;4.678;2024-03-23T01:11:40;12.20;;;2.40;;
61642;SDS011;47551;52.506;4.678;2024-03-23T01:12:00;9.77;;;1.97;;
61642;SDS011;47551;52.506;4.678;2024-03-23T01:12:21;9.98;;;2.10;;
61642;SDS011;47551;52.506;4.678;2024-03-23T01:12:41;11.13;;;2.10;;
61642;SDS011;47551;52.506;4.678;2024-03-23T01:13:02;11.17;;;2.40;;
61642;SDS011;47551;52.506;4.678;2024-03-23T01:13:22;11.17;;;2.33;;
61642;SDS011;47551;52.506;4.678;2024-03-23T01:13:42;9.75;;;2.20;;
61642;SDS011;47551;52.506;4.678;2024-03-23T01:14:02;9.93;;;1.80;;
61642;SDS011;47551;52.506;4.678;2024-03-23T01:14:23;12.03;;;2.17;;
61642;SDS011;47551;52.506;4.678;2024-03-23T01:14:43;10.63;;;2.17;;
61642;SDS011;47551;52.506;4.678;2024-03-23T01:15:06;9.15;;;2.00;;
61642;SDS011;47551;52.506;4.678;2024-03-23T01:15:26;11.73;;;2.30;;
61642;SDS011;47551;52.506;4.678;2024-03-23T01:15:48;9.90;;;2.00;;
61642;SDS011;47551;52.506;4.678;2024-03-23T01:16:08;10.98;;;2.03;;
61642;SDS011;47551;52.506;4.678;2024-03-23T01:16:28;10.80;;;2.10;;
61642;SDS011;47551;52.506;4.678;2024-03-23T01:16:48;11.23;;;2.10;;
61642;SDS011;47551;52.506;4.678;2024-03-23T01:17:09;10.27;;;2.17;;
61642;SDS011;47551;52.506;4.678;2024-03-23T01:17:29;9.10;;;2.33;;
61642;SDS011;47551;52.506;4.678;2024-03-23T01:17:49;9.60;;;2.27;;
61642;SDS011;47551;52.506;4.678;2024-03-23T01:18:09;10.00;;;1.90;;
61642;SDS011;47551;52.506;4.678;2024-03-23T01:18:29;9.80;;;2.00;;
61642;SDS011;47551;52.506;4.678;2024-03-23T01:18:49;11.70;;;2.00;;
61642;SDS011;47551;52.506;4.678;2024-03-23T01:19:10;11.67;;;2.43;;
61642;SDS011;47551;52.506;4.678;2024-03-23T01:19:30;11.07;;;2.28;;
61642;SDS011;47551;52.506;4.678;2024-03-23T01:19:50;10.37;;;2.03;;
61642;SDS011;47551;52.506;4.678;2024-03-23T01:20:10;9.87;;;2.00;;
61642;SDS011;47551;52.506;4.678;2024-03-23T01:20:30;10.33;;;2.10;;
61642;SDS011;47551;52.506;4.678;2024-03-23T01:20:51;13.20;;;1.95;;
61642;SDS011;47551;52.506;4.678;2024-03-23T01:21:11;12.50;;;2.33;;
61642;SDS011;47551;52.506;4.678;2024-03-23T01:21:31;11.90;;;2.47;;
61642;SDS011;47551;52.506;4.678;2024-03-23T01:21:51;10.43;;;2.40;;
61642;SDS011;47551;52.506;4.678;2024-03-23T01:22:11;9.32;;;1.90;;
61642;SDS011;47551;52.506;4.678;2024-03-23T01:22:32;10.47;;;1.83;;
61642;SDS011;47551;52.506;4.678;2024-03-23T01:22:53;11.85;;;2.20;;
61642;SDS011;47551;52.506;4.678;2024-03-23T01:23:13;10.20;;;2.13;;
61642;SDS011;47551;52.506;4.678;2024-03-23T01:23:33;11.80;;;2.07;;
61642;SDS011;47551;52.506;4.678;2024-03-23T01:23:53;11.27;;;2.05;;
61642;SDS011;47551;52.506;4.678;2024-03-23T01:24:13;11.00;;;2.00;;
61642;SDS011;47551;52.506;4.678;2024-03-23T01:24:55;13.13;;;2.22;;
61642;SDS011;47551;52.506;4.678;2024-03-23T01:25:15;11.15;;;2.20;;
61642;SDS011;47551;52.506;4.678;2024-03-23T01:25:35;11.30;;;2.10;;
61642;SDS011;47551;52.506;4.678;2024-03-23T01:25:55;10.30;;;2.30;;
61642;SDS011;47551;52.506;4.678;2024-03-23T01:26:16;11.80;;;2.30;;
61642;SDS011;47551;52.506;4.678;2024-03-23T01:26:36;11.45;;;1.90;;
61642;SDS011;47551;52.506;4.678;2024-03-23T01:26:57;11.35;;;2.17;;
61642;SDS011;47551;52.506;4.678;2024-03-23T01:27:17;11.33;;;2.10;;
61642;SDS011;47551;52.506;4.678;2024-03-23T01:27:38;11.75;;;2.00;;
61642;SDS011;47551;52.506;4.678;2024-03-23T01:27:58;12.87;;;1.97;;
61642;SDS011;47551;52.506;4.678;2024-03-23T01:28:18;15.50;;;2.27;;
61642;SDS011;47551;52.506;4.678;2024-03-23T01:28:39;12.30;;;2.08;;
61642;SDS011;47551;52.506;4.678;2024-03-23T01:28:59;11.55;;;2.28;;
61642;SDS011;47551;52.506;4.678;2024-03-23T01:29:20;11.47;;;2.37;;
61642;SDS011;47551;52.506;4.678;2024-03-23T01:29:40;11.50;;;2.33;;
61642;SDS011;47551;52.506;4.678;2024-03-23T01:30:00;12.03;;;2.40;;
61642;SDS011;47551;52.506;4.678;2024-03-23T01:30:20;10.98;;;2.17;;
61642;SDS011;47551;52.506;4.678;2024-03-23T01:30:40;9.77;;;2.10;;
61642;SDS011;47551;52.506;4.678;2024-03-23T01:31:00;10.87;;;2.20;;
61642;SDS011;47551;52.506;4.678;2024-03-23T01:31:21;10.83;;;2.20;;
61642;SDS011;47551;52.506;4.678;2024-03-23T01:31:41;13.15;;;2.30;;
61642;SDS011;47551;52.506;4.678;2024-03-23T01:32:01;12.17;;;2.40;;
61642;SDS011;47551;52.506;4.678;2024-03-23T01:32:21;9.77;;;2.00;;
61642;SDS011;47551;52.506;4.678;2024-03-23T01:32:41;10.60;;;1.90;;
61642;SDS011;47551;52.506;4.678;2024-03-23T01:33:02;12.25;;;2.30;;
61642;SDS011;47551;52.506;4.678;2024-03-23T01:33:25;13.50;;;2.28;;
61642;SDS011;47551;52.506;4.678;2024-03-23T01:33:45;9.83;;;2.50;;
61642;SDS011;47551;52.506;4.678;2024-03-23T01:34:05;10.48;;;2.25;;
61642;SDS011;47551;52.506;4.678;2024-03-23T01:34:28;10.18;;;1.73;;
61642;SDS011;47551;52.506;4.678;2024-03-23T01:34:48;9.43;;;2.10;;
61642;SDS011;47551;52.506;4.678;2024-03-23T01:35:09;10.10;;;2.10;;
61642;SDS011;47551;52.506;4.678;2024-03-23T01:35:29;10.93;;;2.17;;
61642;SDS011;47551;52.506;4.678;2024-03-23T01:35:49;11.60;;;2.13;;
61642;SDS011;47551;52.506;4.678;2024-03-23T01:36:09;10.30;;;2.20;;
61642;SDS011;47551;52.506;4.678;2024-03-23T01:36:29;13.27;;;2.30;;
61642;SDS011;47551;52.506;4.678;2024-03-23T01:36:50;10.93;;;2.17;;
61642;SDS011;47551;52.506;4.678;2024-03-23T01:37:10;9.73;;;2.00;;
61642;SDS011;47551;52.506;4.678;2024-03-23T01:37:30;11.50;;;2.40;;
61642;SDS011;47551;52.506;4.678;2024-03-23T01:37:50;11.87;;;2.30;;
61642;SDS011;47551;52.506;4.678;2024-03-23T01:38:14;10.27;;;2.20;;
61642;SDS011;47551;52.506;4.678;2024-03-23T01:38:34;11.35;;;2.20;;
61642;SDS011;47551;52.506;4.678;2024-03-23T01:38:54;10.50;;;2.07;;
61642;SDS011;47551;52.506;4.678;2024-03-23T01:39:14;8.90;;;1.83;;
61642;SDS011;47551;52.506;4.678;2024-03-23T01:39:34;9.57;;;1.87;;
61642;SDS011;47551;52.506;4.678;2024-03-23T01:39:54;10.83;;;2.03;;
61642;SDS011;47551;52.506;4.678;2024-03-23T01:40:16;10.37;;;1.90;;
61642;SDS011;47551;52.506;4.678;2024-03-23T01:40:36;10.50;;;2.17;;
61642;SDS011;47551;52.506;4.678;2024-03-23T01:40:57;10.13;;;2.10;;
61642;SDS011;47551;52.506;4.678;2024-03-23T01:41:17;10.40;;;2.17;;
61642;SDS011;47551;52.506;4.678;2024-03-23T01:41:40;10.43;;;2.38;;
61642;SDS011;47551;52.506;4.678;2024-03-23T01:42:02;9.45;;;2.10;;
61642;SDS011;47551;52.506;4.678;2024-03-23T01:42:22;9.75;;;2.17;;
61642;SDS011;47551;52.506;4.678;2024-03-23T01:42:42;12.23;;;2.27;;
61642;SDS011;47551;52.506;4.678;2024-03-23T01:43:03;8.97;;;1.73;;
61642;SDS011;47551;52.506;4.678;2024-03-23T01:43:24;8.82;;;1.92;;
61642;SDS011;47551;52.506;4.678;2024-03-23T01:43:44;11.83;;;2.20;;
61642;SDS011;47551;52.506;4.678;2024-03-23T01:44:04;11.43;;;2.07;;
61642;SDS011;47551;52.506;4.678;2024-03-23T01:44:25;10.13;;;2.05;;
61642;SDS011;47551;52.506;4.678;2024-03-23T01:44:45;10.20;;;2.00;;
61642;SDS011;47551;52.506;4.678;2024-03-23T01:45:08;9.87;;;2.03;;
61642;SDS011;47551;52.506;4.678;2024-03-23T01:45:32;10.27;;;2.13;;
61642;SDS011;47551;52.506;4.678;2024-03-23T01:45:52;9.30;;;1.92;;
61642;SDS011;47551;52.506;4.678;2024-03-23T01:46:16;9.18;;;2.08;;
61642;SDS011;47551;52.506;4.678;2024-03-23T01:46:36;10.77;;;2.03;;
61642;SDS011;47551;52.506;4.678;2024-03-23T01:46:57;7.85;;;1.90;;
61642;SDS011;47551;52.506;4.678;2024-03-23T01:47:17;11.50;;;1.80;;
61642;SDS011;47551;52.506;4.678;2024-03-23T01:47:37;11.80;;;2.03;;
61642;SDS011;47551;52.506;4.678;2024-03-23T01:47:58;13.00;;;2.57;;
61642;SDS011;47551;52.506;4.678;2024-03-23T01:48:21;13.18;;;2.28;;
61642;SDS011;47551;52.506;4.678;2024-03-23T01:48:41;12.30;;;2.00;;
61642;SDS011;47551;52.506;4.678;2024-03-23T01:49:01;12.23;;;1.87;;
61642;SDS011;47551;52.506;4.678;2024-03-23T01:49:22;11.17;;;2.07;;
61642;SDS011;47551;52.506;4.678;2024-03-23T01:49:42;9.30;;;2.13;;
61642;SDS011;47551;52.506;4.678;2024-03-23T01:50:02;10.93;;;2.40;;
61642;SDS011;47551;52.506;4.678;2024-03-23T01:50:22;11.43;;;2.37;;
61642;SDS011;47551;52.506;4.678;2024-03-23T01:50:43;8.68;;;1.92;;
61642;SDS011;47551;52.506;4.678;2024-03-23T01:51:04;10.25;;;2.10;;
61642;SDS011;47551;52.506;4.678;2024-03-23T01:51:24;10.50;;;2.20;;
61642;SDS011;47551;52.506;4.678;2024-03-23T01:51:44;10.40;;;2.10;;
61642;SDS011;47551;52.506;4.678;2024-03-23T01:52:05;8.45;;;1.80;;
61642;SDS011;47551;52.506;4.678;2024-03-23T01:52:28;8.57;;;1.60;;
61642;SDS011;47551;52.506;4.678;2024-03-23T01:52:48;10.77;;;2.05;;
61642;SDS011;47551;52.506;4.678;2024-03-23T01:53:08;12.37;;;2.40;;
61642;SDS011;47551;52.506;4.678;2024-03-23T01:53:29;11.93;;;2.47;;
61642;SDS011;47551;52.506;4.678;2024-03-23T01:53:49;10.45;;;2.33;;
61642;SDS011;47551;52.506;4.678;2024-03-23T01:54:09;10.00;;;2.10;;
61642;SDS011;47551;52.506;4.678;2024-03-23T01:54:30;12.83;;;2.23;;
61642;SDS011;47551;52.506;4.678;2024-03-23T01:54:50;10.73;;;1.80;;
61642;SDS011;47551;52.506;4.678;2024-03-23T01:55:11;9.67;;;1.80;;
61642;SDS011;47551;52.506;4.678;2024-03-23T01:55:32;11.50;;;2.13;;
61642;SDS011;47551;52.506;4.678;2024-03-23T01:55:53;11.10;;;2.43;;
61642;SDS011;47551;52.506;4.678;2024-03-23T01:56:13;10.35;;;2.20;;
61642;SDS011;47551;52.506;4.678;2024-03-23T01:56:34;10.43;;;2.05;;
61642;SDS011;47551;52.506;4.678;2024-03-23T01:56:57;9.32;;;2.08;;
61642;SDS011;47551;52.506;4.678;2024-03-23T01:57:17;10.33;;;2.20;;
61642;SDS011;47551;52.506;4.678;2024-03-23T01:57:37;14.00;;;2.10;;
61642;SDS011;47551;52.506;4.678;2024-03-23T01:57:57;12.13;;;1.80;;
61642;SDS011;47551;52.506;4.678;2024-03-23T01:58:18;12.07;;;2.10;;
61642;SDS011;47551;52.506;4.678;2024-03-23T01:58:38;11.83;;;2.17;;
61642;SDS011;47551;52.506;4.678;2024-03-23T01:58:58;11.77;;;2.40;;
61642;SDS011;47551;52.506;4.678;2024-03-23T01:59:18;12.13;;;2.17;;
61642;SDS011;47551;52.506;4.678;2024-03-23T01:59:38;9.83;;;2.17;;
61642;SDS011;47551;52.506;4.678;2024-03-23T01:59:59;11.27;;;2.30;;
61642;SDS011;47551;52.506;4.678;2024-03-23T02:00:19;12.53;;;2.37;;
61642;SDS011;47551;52.506;4.678;2024-03-23T02:00:43;10.35;;;2.40;;
61642;SDS011;47551;52.506;4.678;2024-03-23T02:01:03;9.73;;;2.10;;
61642;SDS011;47551;52.506;4.678;2024-03-23T02:01:24;10.90;;;1.90;;
61642;SDS011;47551;52.506;4.678;2024-03-23T02:01:44;11.70;;;2.00;;
61642;SDS011;47551;52.506;4.678;2024-03-23T02:02:04;10.10;;;2.30;;
61642;SDS011;47551;52.506;4.678;2024-03-23T02:02:24;12.13;;;2.30;;
61642;SDS011;47551;52.506;4.678;2024-03-23T02:02:45;13.95;;;2.08;;
61642;SDS011;47551;52.506;4.678;2024-03-23T02:03:25;13.30;;;2.40;;
61642;SDS011;47551;52.506;4.678;2024-03-23T02:03:45;12.45;;;2.17;;
61642;SDS011;47551;52.506;4.678;2024-03-23T02:04:05;11.67;;;2.07;;
61642;SDS011;47551;52.506;4.678;2024-03-23T02:04:25;10.88;;;2.03;;
61642;SDS011;47551;52.506;4.678;2024-03-23T02:04:46;10.43;;;2.00;;
61642;SDS011;47551;52.506;4.678;2024-03-23T02:05:06;10.53;;;1.90;;
61642;SDS011;47551;52.506;4.678;2024-03-23T02:05:29;12.02;;;2.15;;
61642;SDS011;47551;52.506;4.678;2024-03-23T02:05:50;11.10;;;2.53;;
61642;SDS011;47551;52.506;4.678;2024-03-23T02:06:10;9.63;;;2.13;;
61642;SDS011;47551;52.506;4.678;2024-03-23T02:06:30;10.38;;;2.30;;
61642;SDS011;47551;52.506;4.678;2024-03-23T02:06:50;10.63;;;2.40;;
61642;SDS011;47551;52.506;4.678;2024-03-23T02:07:14;11.97;;;2.50;;
61642;SDS011;47551;52.506;4.678;2024-03-23T02:07:34;11.15;;;2.10;;
61642;SDS011;47551;52.506;4.678;2024-03-23T02:07:54;10.57;;;1.90;;
61642;SDS011;47551;52.506;4.678;2024-03-23T02:08:14;10.47;;;2.17;;
61642;SDS011;47551;52.506;4.678;2024-03-23T02:08:35;12.20;;;2.53;;
61642;SDS011;47551;52.506;4.678;2024-03-23T02:08:55;11.93;;;2.13;;
61642;SDS011;47551;52.506;4.678;2024-03-23T02:09:15;11.67;;;2.40;;
61642;SDS011;47551;52.506;4.678;2024-03-23T02:09:35;11.90;;;2.50;;
61642;SDS011;47551;52.506;4.678;2024-03-23T02:09:56;15.07;;;2.50;;
61642;SDS011;47551;52.506;4.678;2024-03-23T02:10:16;14.80;;;2.17;;
61642;SDS011;47551;52.506;4.678;2024-03-23T02:10:36;14.37;;;2.30;;
61642;SDS011;47551;52.506;4.678;2024-03-23T02:10:56;13.40;;;2.13;;
61642;SDS011;47551;52.506;4.678;2024-03-23T02:11:18;10.63;;;2.17;;
61642;SDS011;47551;52.506;4.678;2024-03-23T02:11:38;11.53;;;2.20;;
61642;SDS011;47551;52.506;4.678;2024-03-23T02:11:59;12.20;;;2.00;;
61642;SDS011;47551;52.506;4.678;2024-03-23T02:12:21;10.10;;;1.73;;
61642;SDS011;47551;52.506;4.678;2024-03-23T02:12:41;10.97;;;1.90;;
61642;SDS011;47551;52.506;4.678;2024-03-23T02:13:02;11.73;;;2.00;;
61642;SDS011;47551;52.506;4.678;2024-03-23T02:13:22;10.60;;;2.10;;
61642;SDS011;47551;52.506;4.678;2024-03-23T02:13:42;10.03;;;2.13;;
61642;SDS011;47551;52.506;4.678;2024-03-23T02:14:02;10.80;;;2.10;;
61642;SDS011;47551;52.506;4.678;2024-03-23T02:14:22;12.53;;;2.20;;
61642;SDS011;47551;52.506;4.678;2024-03-23T02:14:43;10.10;;;2.10;;
61642;SDS011;47551;52.506;4.678;2024-03-23T02:15:03;10.70;;;1.97;;
61642;SDS011;47551;52.506;4.678;2024-03-23T02:15:23;9.90;;;1.80;;
61642;SDS011;47551;52.506;4.678;2024-03-23T02:15:43;10.13;;;2.00;;
61642;SDS011;47551;52.506;4.678;2024-03-23T02:16:05;9.57;;;1.95;;
61642;SDS011;47551;52.506;4.678;2024-03-23T02:16:25;9.65;;;1.90;;
61642;SDS011;47551;52.506;4.678;2024-03-23T02:16:45;11.23;;;1.80;;
61642;SDS011;47551;52.506;4.678;2024-03-23T02:17:07;9.07;;;1.63;;
61642;SDS011;47551;52.506;4.678;2024-03-23T02:17:27;9.03;;;1.57;;
61642;SDS011;47551;52.506;4.678;2024-03-23T02:17:47;8.23;;;1.58;;
61642;SDS011;47551;52.506;4.678;2024-03-23T02:18:08;8.73;;;1.90;;
61642;SDS011;47551;52.506;4.678;2024-03-23T02:18:28;10.52;;;2.00;;
61642;SDS011;47551;52.506;4.678;2024-03-23T02:18:49;10.00;;;1.80;;
61642;SDS011;47551;52.506;4.678;2024-03-23T02:19:09;8.07;;;1.57;;
61642;SDS011;47551;52.506;4.678;2024-03-23T02:19:29;9.93;;;1.73;;
61642;SDS011;47551;52.506;4.678;2024-03-23T02:19:50;11.27;;;1.80;;
61642;SDS011;47551;52.506;4.678;2024-03-23T02:20:11;9.07;;;1.88;;
61642;SDS011;47551;52.506;4.678;2024-03-23T02:20:32;9.65;;;1.80;;
61642;SDS011;47551;52.506;4.678;2024-03-23T02:20:55;9.15;;;1.63;;
61642;SDS011;47551;52.506;4.678;2024-03-23T02:21:15;9.70;;;1.70;;
61642;SDS011;47551;52.506;4.678;2024-03-23T02:21:35;10.00;;;2.03;;
61642;SDS011;47551;52.506;4.678;2024-03-23T02:21:55;9.82;;;2.00;;
61642;SDS011;47551;52.506;4.678;2024-03-23T02:22:15;10.63;;;2.13;;
61642;SDS011;47551;52.506;4.678;2024-03-23T02:22:36;12.07;;;2.40;;
61642;SDS011;47551;52.506;4.678;2024-03-23T02:22:57;10.13;;;2.05;;
61642;SDS011;47551;52.506;4.678;2024-03-23T02:23:17;9.43;;;2.10;;
61642;SDS011;47551;52.506;4.678;2024-03-23T02:23:40;7.63;;;2.00;;
61642;SDS011;47551;52.506;4.678;2024-03-23T02:24:00;8.53;;;1.83;;
61642;SDS011;47551;52.506;4.678;2024-03-23T02:24:21;10.83;;;1.83;;
61642;SDS011;47551;52.506;4.678;2024-03-23T02:24:41;10.23;;;2.13;;
61642;SDS011;47551;52.506;4.678;2024-03-23T02:25:03;8.13;;;1.70;;
61642;SDS011;47551;52.506;4.678;2024-03-23T02:25:26;10.13;;;1.90;;
61642;SDS011;47551;52.506;4.678;2024-03-23T02:25:46;10.55;;;2.20;;
61642;SDS011;47551;52.506;4.678;2024-03-23T02:26:09;8.70;;;1.80;;
61642;SDS011;47551;52.506;4.678;2024-03-23T02:26:29;11.13;;;1.77;;
61642;SDS011;47551;52.506;4.678;2024-03-23T02:26:49;9.83;;;1.90;;
61642;SDS011;47551;52.506;4.678;2024-03-23T02:27:09;8.73;;;1.80;;
61642;SDS011;47551;52.506;4.678;2024-03-23T02:27:30;8.57;;;1.67;;
61642;SDS011;47551;52.506;4.678;2024-03-23T02:27:50;9.07;;;2.00;;
61642;SDS011;47551;52.506;4.678;2024-03-23T02:28:10;10.07;;;1.93;;
61642;SDS011;47551;52.506;4.678;2024-03-23T02:28:30;10.15;;;1.80;;
61642;SDS011;47551;52.506;4.678;2024-03-23T02:28:54;9.65;;;1.52;;
61642;SDS011;47551;52.506;4.678;2024-03-23T02:29:14;8.93;;;1.80;;
61642;SDS011;47551;52.506;4.678;2024-03-23T02:29:34;9.63;;;2.00;;
61642;SDS011;47551;52.506;4.678;2024-03-23T02:29:54;8.13;;;1.80;;
61642;SDS011;47551;52.506;4.678;2024-03-23T02:30:15;9.33;;;1.83;;
61642;SDS011;47551;52.506;4.678;2024-03-23T02:30:35;11.23;;;2.03;;
61642;SDS011;47551;52.506;4.678;2024-03-23T02:30:55;9.23;;;1.90;;
61642;SDS011;47551;52.506;4.678;2024-03-23T02:31:18;9.07;;;1.80;;
61642;SDS011;47551;52.506;4.678;2024-03-23T02:31:44;9.97;;;1.70;;
61642;SDS011;47551;52.506;4.678;2024-03-23T02:32:05;10.68;;;1.80;;
61642;SDS011;47551;52.506;4.678;2024-03-23T02:32:25;10.20;;;1.80;;
61642;SDS011;47551;52.506;4.678;2024-03-23T02:32:46;9.63;;;1.80;;
61642;SDS011;47551;52.506;4.678;2024-03-23T02:33:06;8.68;;;1.70;;
61642;SDS011;47551;52.506;4.678;2024-03-23T02:33:26;10.70;;;1.93;;
61642;SDS011;47551;52.506;4.678;2024-03-23T02:33:46;9.60;;;1.80;;
61642;SDS011;47551;52.506;4.678;2024-03-23T02:34:06;9.45;;;1.60;;
61642;SDS011;47551;52.506;4.678;2024-03-23T02:34:26;9.10;;;1.87;;
61642;SDS011;47551;52.506;4.678;2024-03-23T02:34:47;8.37;;;2.00;;
61642;SDS011;47551;52.506;4.678;2024-03-23T02:35:07;9.23;;;1.60;;
61642;SDS011;47551;52.506;4.678;2024-03-23T02:35:27;8.00;;;1.57;;
61642;SDS011;47551;52.506;4.678;2024-03-23T02:35:48;9.45;;;1.60;;
61642;SDS011;47551;52.506;4.678;2024-03-23T02:36:09;8.63;;;1.90;;
61642;SDS011;47551;52.506;4.678;2024-03-23T02:36:29;7.88;;;1.55;;
61642;SDS011;47551;52.506;4.678;2024-03-23T02:36:51;8.68;;;1.50;;
61642;SDS011;47551;52.506;4.678;2024-03-23T02:37:11;6.68;;;1.40;;
61642;SDS011;47551;52.506;4.678;2024-03-23T02:37:31;8.20;;;1.50;;
61642;SDS011;47551;52.506;4.678;2024-03-23T02:37:52;10.82;;;1.67;;
61642;SDS011;47551;52.506;4.678;2024-03-23T02:38:13;9.57;;;1.90;;
61642;SDS011;47551;52.506;4.678;2024-03-23T02:38:33;9.63;;;2.00;;
61642;SDS011;47551;52.506;4.678;2024-03-23T02:39:02;8.50;;;1.70;;
61642;SDS011;47551;52.506;4.678;2024-03-23T02:39:23;9.73;;;1.80;;
61642;SDS011;47551;52.506;4.678;2024-03-23T02:39:43;10.20;;;1.83;;
61642;SDS011;47551;52.506;4.678;2024-03-23T02:40:03;8.90;;;1.60;;
61642;SDS011;47551;52.506;4.678;2024-03-23T02:40:24;9.20;;;1.67;;
61642;SDS011;47551;52.506;4.678;2024-03-23T02:40:44;9.10;;;1.70;;
61642;SDS011;47551;52.506;4.678;2024-03-23T02:41:04;8.17;;;1.90;;
61642;SDS011;47551;52.506;4.678;2024-03-23T02:41:25;8.13;;;1.80;;
61642;SDS011;47551;52.506;4.678;2024-03-23T02:41:45;8.87;;;1.80;;
61642;SDS011;47551;52.506;4.678;2024-03-23T02:42:05;10.83;;;1.90;;
61642;SDS011;47551;52.506;4.678;2024-03-23T02:42:26;9.63;;;1.90;;
61642;SDS011;47551;52.506;4.678;2024-03-23T02:42:46;8.83;;;1.73;;
61642;SDS011;47551;52.506;4.678;2024-03-23T02:43:06;7.63;;;1.50;;
61642;SDS011;47551;52.506;4.678;2024-03-23T02:43:26;8.40;;;1.80;;
61642;SDS011;47551;52.506;4.678;2024-03-23T02:43:49;10.60;;;1.90;;
61642;SDS011;47551;52.506;4.678;2024-03-23T02:44:10;11.00;;;1.77;;
61642;SDS011;47551;52.506;4.678;2024-03-23T02:44:31;8.77;;;1.80;;
61642;SDS011;47551;52.506;4.678;2024-03-23T02:44:52;9.95;;;2.00;;
61642;SDS011;47551;52.506;4.678;2024-03-23T02:45:12;10.20;;;2.00;;
61642;SDS011;47551;52.506;4.678;2024-03-23T02:45:32;9.47;;;1.90;;
61642;SDS011;47551;52.506;4.678;2024-03-23T02:45:52;11.80;;;2.10;;
61642;SDS011;47551;52.506;4.678;2024-03-23T02:46:12;11.47;;;2.00;;
61642;SDS011;47551;52.506;4.678;2024-03-23T02:46:32;9.93;;;1.90;;
61642;SDS011;47551;52.506;4.678;2024-03-23T02:46:53;9.47;;;1.80;;
61642;SDS011;47551;52.506;4.678;2024-03-23T02:47:13;9.07;;;1.60;;
61642;SDS011;47551;52.506;4.678;2024-03-23T02:47:33;9.97;;;1.70;;
61642;SDS011;47551;52.506;4.678;2024-03-23T02:47:53;9.85;;;1.70;;
61642;SDS011;47551;52.506;4.678;2024-03-23T02:48:13;7.47;;;1.70;;
61642;SDS011;47551;52.506;4.678;2024-03-23T02:48:34;9.30;;;1.70;;
61642;SDS011;47551;52.506;4.678;2024-03-23T02:48:54;8.67;;;1.60;;
61642;SDS011;47551;52.506;4.678;2024-03-23T02:49:14;8.55;;;1.55;;
61642;SDS011;47551;52.506;4.678;2024-03-23T02:49:34;7.57;;;1.70;;
61642;SDS011;47551;52.506;4.678;2024-03-23T02:49:54;9.63;;;1.80;;
61642;SDS011;47551;52.506;4.678;2024-03-23T02:50:18;10.30;;;2.00;;
61642;SDS011;47551;52.506;4.678;2024-03-23T02:50:39;9.15;;;1.85;;
61642;SDS011;47551;52.506;4.678;2024-03-23T02:50:59;8.63;;;1.80;;
61642;SDS011;47551;52.506;4.678;2024-03-23T02:51:19;9.17;;;1.90;;
61642;SDS011;47551;52.506;4.678;2024-03-23T02:51:39;9.33;;;1.90;;
61642;SDS011;47551;52.506;4.678;2024-03-23T02:52:05;10.23;;;1.70;;
61642;SDS011;47551;52.506;4.678;2024-03-23T02:52:25;10.37;;;1.67;;
61642;SDS011;47551;52.506;4.678;2024-03-23T02:52:45;8.98;;;1.40;;
61642;SDS011;47551;52.506;4.678;2024-03-23T02:53:06;9.80;;;1.93;;
61642;SDS011;47551;52.506;4.678;2024-03-23T02:53:26;9.07;;;1.73;;
61642;SDS011;47551;52.506;4.678;2024-03-23T02:53:46;9.53;;;1.70;;
61642;SDS011;47551;52.506;4.678;2024-03-23T02:54:06;10.35;;;1.88;;
61642;SDS011;47551;52.506;4.678;2024-03-23T02:54:26;8.93;;;1.67;;
61642;SDS011;47551;52.506;4.678;2024-03-23T02:54:46;8.63;;;1.60;;
61642;SDS011;47551;52.506;4.678;2024-03-23T02:55:07;9.97;;;1.70;;
61642;SDS011;47551;52.506;4.678;2024-03-23T02:55:27;9.43;;;1.70;;
61642;SDS011;47551;52.506;4.678;2024-03-23T02:55:47;8.93;;;1.53;;
61642;SDS011;47551;52.506;4.678;2024-03-23T02:56:08;12.20;;;1.70;;
61642;SDS011;47551;52.506;4.678;2024-03-23T02:56:28;10.40;;;1.83;;